Robbs, Illinois
Current Conditions -  °F | °C
As of 11:15 AM on Friday 24 Oct 2014 (Local Time) from KM30 Reporting Station
Clear Clear  
Wind Chill: 62°   Ceiling: Unl
Heat Index: 62°   Visibility: 10mi
Dew Point: 52°   Wind: 6mph
Humidity: 69%   Direction: 260°W
Pressure: 30.13"   Gusts: NA
Location:  37.4681°N, 88.7651°W
Report Text: KM30 241615Z AUTO 26005KT 10SM CLR 17/11 A3013 RMK AO2 T01670110
Loading
Personal Weather Stations






























Interactive Weather Map
Tropical Storm Tracking
New forecast layout! Learn more

10-Day Weather Forecast

Advertisements
Track Severe Weather on mobile